sensor_id;sensor_type;location;lat;lon;timestamp;temperature;humidity
30304;DHT22;17112;48.636;10.152;2023-02-15T00:01:46;3.50;75.10
30304;DHT22;17112;48.636;10.152;2023-02-15T00:04:14;3.50;74.90
30304;DHT22;17112;48.636;10.152;2023-02-15T00:06:40;3.50;74.90
30304;DHT22;17112;48.636;10.152;2023-02-15T00:09:06;3.40;74.70
30304;DHT22;17112;48.636;10.152;2023-02-15T00:11:31;3.40;74.80
30304;DHT22;17112;48.636;10.152;2023-02-15T00:14:10;3.30;74.90
30304;DHT22;17112;48.636;10.152;2023-02-15T00:16:37;3.30;74.90
30304;DHT22;17112;48.636;10.152;2023-02-15T00:19:04;3.20;74.70
30304;DHT22;17112;48.636;10.152;2023-02-15T00:21:31;3.20;74.60
30304;DHT22;17112;48.636;10.152;2023-02-15T00:23:59;3.20;75.00
30304;DHT22;17112;48.636;10.152;2023-02-15T00:26:25;3.10;75.30
30304;DHT22;17112;48.636;10.152;2023-02-15T00:28:52;3.10;75.40
30304;DHT22;17112;48.636;10.152;2023-02-15T00:31:17;3.10;75.60
30304;DHT22;17112;48.636;10.152;2023-02-15T00:33:43;3.10;75.70
30304;DHT22;17112;48.636;10.152;2023-02-15T00:36:09;3.10;75.70
30304;DHT22;17112;48.636;10.152;2023-02-15T00:38:36;3.20;75.60
30304;DHT22;17112;48.636;10.152;2023-02-15T00:41:04;3.10;75.60
30304;DHT22;17112;48.636;10.152;2023-02-15T00:43:31;3.10;75.70
30304;DHT22;17112;48.636;10.152;2023-02-15T00:45:58;3.10;75.70
30304;DHT22;17112;48.636;10.152;2023-02-15T00:48:24;3.20;75.90
30304;DHT22;17112;48.636;10.152;2023-02-15T00:50:52;3.10;75.80
30304;DHT22;17112;48.636;10.152;2023-02-15T00:53:19;3.10;75.40
30304;DHT22;17112;48.636;10.152;2023-02-15T00:55:45;3.10;75.30
30304;DHT22;17112;48.636;10.152;2023-02-15T00:58:11;3.10;75.30
30304;DHT22;17112;48.636;10.152;2023-02-15T01:00:38;3.10;75.50
30304;DHT22;17112;48.636;10.152;2023-02-15T01:03:05;3.20;75.50
30304;DHT22;17112;48.636;10.152;2023-02-15T01:05:31;3.00;75.60
30304;DHT22;17112;48.636;10.152;2023-02-15T01:07:57;3.00;75.70
30304;DHT22;17112;48.636;10.152;2023-02-15T01:10:23;3.00;75.90
30304;DHT22;17112;48.636;10.152;2023-02-15T01:12:50;3.00;76.20
30304;DHT22;17112;48.636;10.152;2023-02-15T01:15:16;3.00;76.90
30304;DHT22;17112;48.636;10.152;2023-02-15T01:17:42;3.10;76.20
30304;DHT22;17112;48.636;10.152;2023-02-15T01:20:09;3.10;76.10
30304;DHT22;17112;48.636;10.152;2023-02-15T01:22:35;3.10;76.10
30304;DHT22;17112;48.636;10.152;2023-02-15T01:25:01;3.10;75.70
30304;DHT22;17112;48.636;10.152;2023-02-15T01:27:26;3.10;75.60
30304;DHT22;17112;48.636;10.152;2023-02-15T01:29:55;3.10;75.60
30304;DHT22;17112;48.636;10.152;2023-02-15T01:32:21;3.10;75.60
30304;DHT22;17112;48.636;10.152;2023-02-15T01:34:47;3.10;75.50
30304;DHT22;17112;48.636;10.152;2023-02-15T01:37:12;3.10;75.60
30304;DHT22;17112;48.636;10.152;2023-02-15T01:39:38;3.30;75.70
30304;DHT22;17112;48.636;10.152;2023-02-15T01:42:03;3.20;75.80
30304;DHT22;17112;48.636;10.152;2023-02-15T01:44:54;3.00;75.90
30304;DHT22;17112;48.636;10.152;2023-02-15T01:47:37;3.10;76.10
30304;DHT22;17112;48.636;10.152;2023-02-15T01:52:48;3.10;75.90
30304;DHT22;17112;48.636;10.152;2023-02-15T01:55:15;3.10;75.90
30304;DHT22;17112;48.636;10.152;2023-02-15T01:57:42;3.10;75.90
30304;DHT22;17112;48.636;10.152;2023-02-15T02:00:08;3.10;75.90
30304;DHT22;17112;48.636;10.152;2023-02-15T02:02:35;3.10;75.80
30304;DHT22;17112;48.636;10.152;2023-02-15T02:05:03;3.10;75.70
30304;DHT22;17112;48.636;10.152;2023-02-15T02:07:35;3.20;75.80
30304;DHT22;17112;48.636;10.152;2023-02-15T02:10:02;3.20;75.80
30304;DHT22;17112;48.636;10.152;2023-02-15T02:12:28;3.40;75.90
30304;DHT22;17112;48.636;10.152;2023-02-15T02:14:55;3.20;75.80
30304;DHT22;17112;48.636;10.152;2023-02-15T02:20:20;3.30;75.80
30304;DHT22;17112;48.636;10.152;2023-02-15T02:40:06;2.90;74.70
30304;DHT22;17112;48.636;10.152;2023-02-15T02:45:15;2.90;75.20
30304;DHT22;17112;48.636;10.152;2023-02-15T02:50:13;2.80;75.80
30304;DHT22;17112;48.636;10.152;2023-02-15T02:52:47;2.80;75.80
30304;DHT22;17112;48.636;10.152;2023-02-15T02:55:23;2.90;75.80
30304;DHT22;17112;48.636;10.152;2023-02-15T03:00:21;2.90;76.00
30304;DHT22;17112;48.636;10.152;2023-02-15T03:02:52;2.90;76.80
30304;DHT22;17112;48.636;10.152;2023-02-15T03:05:23;2.90;76.20
30304;DHT22;17112;48.636;10.152;2023-02-15T03:07:53;3.10;76.20
30304;DHT22;17112;48.636;10.152;2023-02-15T03:10:23;2.90;75.60
30304;DHT22;17112;48.636;10.152;2023-02-15T03:12:50;2.90;75.10
30304;DHT22;17112;48.636;10.152;2023-02-15T03:15:29;2.90;75.30
30304;DHT22;17112;48.636;10.152;2023-02-15T03:18:19;2.80;75.70
30304;DHT22;17112;48.636;10.152;2023-02-15T03:20:46;2.80;75.70
30304;DHT22;17112;48.636;10.152;2023-02-15T03:23:23;2.80;75.70
30304;DHT22;17112;48.636;10.152;2023-02-15T03:25:52;2.80;75.90
30304;DHT22;17112;48.636;10.152;2023-02-15T03:28:32;2.80;75.80
30304;DHT22;17112;48.636;10.152;2023-02-15T03:31:00;2.80;75.90
30304;DHT22;17112;48.636;10.152;2023-02-15T03:33:28;2.80;75.90
30304;DHT22;17112;48.636;10.152;2023-02-15T03:36:00;2.80;76.00
30304;DHT22;17112;48.636;10.152;2023-02-15T03:38:47;2.90;76.20
30304;DHT22;17112;48.636;10.152;2023-02-15T03:41:16;2.90;76.20
30304;DHT22;17112;48.636;10.152;2023-02-15T03:43:45;3.00;76.20
30304;DHT22;17112;48.636;10.152;2023-02-15T03:46:30;2.90;76.20
30304;DHT22;17112;48.636;10.152;2023-02-15T03:49:22;3.00;76.50
30304;DHT22;17112;48.636;10.152;2023-02-15T03:51:50;3.00;76.30
30304;DHT22;17112;48.636;10.152;2023-02-15T03:54:28;3.00;76.10
30304;DHT22;17112;48.636;10.152;2023-02-15T03:57:16;3.30;76.10
30304;DHT22;17112;48.636;10.152;2023-02-15T04:00:23;3.10;75.80
30304;DHT22;17112;48.636;10.152;2023-02-15T04:03:28;3.10;76.40
30304;DHT22;17112;48.636;10.152;2023-02-15T04:05:57;3.00;75.50
30304;DHT22;17112;48.636;10.152;2023-02-15T04:08:23;3.20;75.60
30304;DHT22;17112;48.636;10.152;2023-02-15T04:11:08;3.00;75.10
30304;DHT22;17112;48.636;10.152;2023-02-15T04:13:34;3.20;75.30
30304;DHT22;17112;48.636;10.152;2023-02-15T04:15:59;3.30;75.60
30304;DHT22;17112;48.636;10.152;2023-02-15T04:18:37;2.90;75.40
30304;DHT22;17112;48.636;10.152;2023-02-15T04:21:23;2.90;75.50
30304;DHT22;17112;48.636;10.152;2023-02-15T04:24:09;2.90;75.60
30304;DHT22;17112;48.636;10.152;2023-02-15T04:26:53;2.90;75.60
30304;DHT22;17112;48.636;10.152;2023-02-15T04:29:20;2.90;75.60
30304;DHT22;17112;48.636;10.152;2023-02-15T04:31:46;2.90;75.60
30304;DHT22;17112;48.636;10.152;2023-02-15T04:34:12;3.10;75.90
30304;DHT22;17112;48.636;10.152;2023-02-15T04:36:38;2.90;75.60
30304;DHT22;17112;48.636;10.152;2023-02-15T04:39:05;2.90;75.40
30304;DHT22;17112;48.636;10.152;2023-02-15T04:41:31;3.20;75.30
30304;DHT22;17112;48.636;10.152;2023-02-15T04:43:57;3.00;74.90
30304;DHT22;17112;48.636;10.152;2023-02-15T04:46:24;2.80;75.10
30304;DHT22;17112;48.636;10.152;2023-02-15T04:48:50;2.70;75.30
30304;DHT22;17112;48.636;10.152;2023-02-15T04:51:16;3.10;75.80
30304;DHT22;17112;48.636;10.152;2023-02-15T04:53:41;2.70;75.50
30304;DHT22;17112;48.636;10.152;2023-02-15T04:56:07;2.70;75.40
30304;DHT22;17112;48.636;10.152;2023-02-15T04:58:33;2.70;75.40
30304;DHT22;17112;48.636;10.152;2023-02-15T05:00:59;2.70;75.60
30304;DHT22;17112;48.636;10.152;2023-02-15T05:03:25;2.80;75.70
30304;DHT22;17112;48.636;10.152;2023-02-15T05:05:51;2.60;75.70
30304;DHT22;17112;48.636;10.152;2023-02-15T05:08:17;2.60;75.80
30304;DHT22;17112;48.636;10.152;2023-02-15T05:10:42;2.60;75.80
30304;DHT22;17112;48.636;10.152;2023-02-15T05:13:08;2.60;75.80
30304;DHT22;17112;48.636;10.152;2023-02-15T05:15:33;2.60;75.80
30304;DHT22;17112;48.636;10.152;2023-02-15T05:17:59;2.60;75.70
30304;DHT22;17112;48.636;10.152;2023-02-15T05:20:26;2.60;75.20
30304;DHT22;17112;48.636;10.152;2023-02-15T05:22:55;2.60;75.00
30304;DHT22;17112;48.636;10.152;2023-02-15T05:25:21;2.50;75.00
30304;DHT22;17112;48.636;10.152;2023-02-15T05:28:07;2.40;75.10
30304;DHT22;17112;48.636;10.152;2023-02-15T05:30:47;2.70;75.50
30304;DHT22;17112;48.636;10.152;2023-02-15T05:33:13;2.40;75.10
30304;DHT22;17112;48.636;10.152;2023-02-15T05:35:39;2.40;75.50
30304;DHT22;17112;48.636;10.152;2023-02-15T05:38:04;2.30;75.60
30304;DHT22;17112;48.636;10.152;2023-02-15T05:40:30;2.30;75.70
30304;DHT22;17112;48.636;10.152;2023-02-15T05:42:56;2.30;75.70
30304;DHT22;17112;48.636;10.152;2023-02-15T05:45:22;2.20;75.50
30304;DHT22;17112;48.636;10.152;2023-02-15T05:47:48;2.30;75.90
30304;DHT22;17112;48.636;10.152;2023-02-15T05:50:14;2.20;76.10
30304;DHT22;17112;48.636;10.152;2023-02-15T05:52:40;2.20;75.90
30304;DHT22;17112;48.636;10.152;2023-02-15T05:55:06;2.30;76.10
30304;DHT22;17112;48.636;10.152;2023-02-15T05:57:32;2.30;76.30
30304;DHT22;17112;48.636;10.152;2023-02-15T05:59:58;2.30;76.40
30304;DHT22;17112;48.636;10.152;2023-02-15T06:02:23;2.30;76.40
30304;DHT22;17112;48.636;10.152;2023-02-15T06:04:49;2.30;76.40
30304;DHT22;17112;48.636;10.152;2023-02-15T06:07:15;2.30;76.40
30304;DHT22;17112;48.636;10.152;2023-02-15T06:09:40;2.40;76.50
30304;DHT22;17112;48.636;10.152;2023-02-15T06:12:06;2.40;76.70
30304;DHT22;17112;48.636;10.152;2023-02-15T06:14:32;2.40;76.60
30304;DHT22;17112;48.636;10.152;2023-02-15T06:16:57;2.40;76.70
30304;DHT22;17112;48.636;10.152;2023-02-15T06:19:23;2.50;76.80
30304;DHT22;17112;48.636;10.152;2023-02-15T06:21:49;2.50;76.70
30304;DHT22;17112;48.636;10.152;2023-02-15T06:24:15;2.60;76.80
30304;DHT22;17112;48.636;10.152;2023-02-15T06:26:41;2.60;76.90
30304;DHT22;17112;48.636;10.152;2023-02-15T06:29:07;2.60;76.60
30304;DHT22;17112;48.636;10.152;2023-02-15T06:31:32;2.60;76.50
30304;DHT22;17112;48.636;10.152;2023-02-15T06:33:58;2.70;76.40
30304;DHT22;17112;48.636;10.152;2023-02-15T06:36:30;2.70;76.20
30304;DHT22;17112;48.636;10.152;2023-02-15T06:38:57;2.70;76.00
30304;DHT22;17112;48.636;10.152;2023-02-15T06:41:23;2.70;75.90
30304;DHT22;17112;48.636;10.152;2023-02-15T06:43:49;2.90;76.00
30304;DHT22;17112;48.636;10.152;2023-02-15T06:46:15;2.60;75.80
30304;DHT22;17112;48.636;10.152;2023-02-15T06:48:41;2.60;75.90
30304;DHT22;17112;48.636;10.152;2023-02-15T06:51:06;2.60;75.70
30304;DHT22;17112;48.636;10.152;2023-02-15T06:53:32;2.70;75.90
30304;DHT22;17112;48.636;10.152;2023-02-15T06:56:06;2.60;76.00
30304;DHT22;17112;48.636;10.152;2023-02-15T06:58:40;2.70;75.90
30304;DHT22;17112;48.636;10.152;2023-02-15T07:01:07;2.60;75.80
30304;DHT22;17112;48.636;10.152;2023-02-15T07:03:34;2.60;75.70
30304;DHT22;17112;48.636;10.152;2023-02-15T07:06:00;2.60;75.70
30304;DHT22;17112;48.636;10.152;2023-02-15T07:08:27;2.60;75.90
30304;DHT22;17112;48.636;10.152;2023-02-15T07:10:55;2.60;76.20
30304;DHT22;17112;48.636;10.152;2023-02-15T07:13:40;2.60;76.40
30304;DHT22;17112;48.636;10.152;2023-02-15T07:16:08;2.70;76.40
30304;DHT22;17112;48.636;10.152;2023-02-15T07:18:34;2.70;76.40
30304;DHT22;17112;48.636;10.152;2023-02-15T07:21:00;2.70;76.40
30304;DHT22;17112;48.636;10.152;2023-02-15T07:23:25;2.80;77.10
30304;DHT22;17112;48.636;10.152;2023-02-15T07:26:00;2.80;76.30
30304;DHT22;17112;48.636;10.152;2023-02-15T07:28:27;2.80;76.10
30304;DHT22;17112;48.636;10.152;2023-02-15T07:30:53;2.80;76.00
30304;DHT22;17112;48.636;10.152;2023-02-15T07:33:18;2.80;76.10
30304;DHT22;17112;48.636;10.152;2023-02-15T07:35:51;2.90;76.00
30304;DHT22;17112;48.636;10.152;2023-02-15T07:38:18;3.00;76.10
30304;DHT22;17112;48.636;10.152;2023-02-15T07:40:44;3.00;76.20
30304;DHT22;17112;48.636;10.152;2023-02-15T07:43:10;3.20;76.40
30304;DHT22;17112;48.636;10.152;2023-02-15T07:45:36;2.90;76.00
30304;DHT22;17112;48.636;10.152;2023-02-15T07:48:03;2.90;75.90
30304;DHT22;17112;48.636;10.152;2023-02-15T07:50:30;2.90;75.40
30304;DHT22;17112;48.636;10.152;2023-02-15T07:52:57;2.90;75.70
30304;DHT22;17112;48.636;10.152;2023-02-15T07:55:23;2.90;76.00
30304;DHT22;17112;48.636;10.152;2023-02-15T07:57:49;2.90;76.30
30304;DHT22;17112;48.636;10.152;2023-02-15T08:00:17;2.90;76.50
30304;DHT22;17112;48.636;10.152;2023-02-15T08:02:50;2.90;76.60
30304;DHT22;17112;48.636;10.152;2023-02-15T08:05:36;2.90;76.50
30304;DHT22;17112;48.636;10.152;2023-02-15T08:08:02;3.00;76.50
30304;DHT22;17112;48.636;10.152;2023-02-15T08:10:27;3.00;76.50
30304;DHT22;17112;48.636;10.152;2023-02-15T08:13:13;3.20;76.60
30304;DHT22;17112;48.636;10.152;2023-02-15T08:15:38;3.40;76.70
30304;DHT22;17112;48.636;10.152;2023-02-15T08:18:04;3.10;76.50
30304;DHT22;17112;48.636;10.152;2023-02-15T08:20:30;3.20;76.50
30304;DHT22;17112;48.636;10.152;2023-02-15T08:22:56;3.20;76.50
30304;DHT22;17112;48.636;10.152;2023-02-15T08:25:21;3.20;76.60
30304;DHT22;17112;48.636;10.152;2023-02-15T08:27:47;3.30;76.60
30304;DHT22;17112;48.636;10.152;2023-02-15T08:30:13;3.30;76.60
30304;DHT22;17112;48.636;10.152;2023-02-15T08:32:39;3.40;76.60
30304;DHT22;17112;48.636;10.152;2023-02-15T08:35:05;3.40;76.50
30304;DHT22;17112;48.636;10.152;2023-02-15T08:37:32;3.50;76.50
30304;DHT22;17112;48.636;10.152;2023-02-15T08:39:57;3.70;76.50
30304;DHT22;17112;48.636;10.152;2023-02-15T08:42:23;3.60;76.20
30304;DHT22;17112;48.636;10.152;2023-02-15T08:44:48;3.90;76.30
30304;DHT22;17112;48.636;10.152;2023-02-15T08:47:16;3.60;75.90
30304;DHT22;17112;48.636;10.152;2023-02-15T08:49:41;3.60;75.60
30304;DHT22;17112;48.636;10.152;2023-02-15T08:52:07;3.60;75.40
30304;DHT22;17112;48.636;10.152;2023-02-15T08:54:33;3.60;75.30
30304;DHT22;17112;48.636;10.152;2023-02-15T08:56:58;3.60;75.50
30304;DHT22;17112;48.636;10.152;2023-02-15T08:59:25;3.60;75.70
30304;DHT22;17112;48.636;10.152;2023-02-15T09:01:52;3.60;75.80
30304;DHT22;17112;48.636;10.152;2023-02-15T09:04:19;3.60;75.90
30304;DHT22;17112;48.636;10.152;2023-02-15T09:06:47;3.60;75.90
30304;DHT22;17112;48.636;10.152;2023-02-15T09:09:13;3.70;75.60
30304;DHT22;17112;48.636;10.152;2023-02-15T09:11:41;3.70;75.40
30304;DHT22;17112;48.636;10.152;2023-02-15T09:14:13;3.70;75.40
30304;DHT22;17112;48.636;10.152;2023-02-15T09:16:40;3.70;75.70
30304;DHT22;17112;48.636;10.152;2023-02-15T09:19:06;3.70;76.10
30304;DHT22;17112;48.636;10.152;2023-02-15T09:21:33;3.70;76.00
30304;DHT22;17112;48.636;10.152;2023-02-15T09:24:02;3.70;76.10
30304;DHT22;17112;48.636;10.152;2023-02-15T09:26:29;3.80;76.00
30304;DHT22;17112;48.636;10.152;2023-02-15T09:28:58;3.80;76.10
30304;DHT22;17112;48.636;10.152;2023-02-15T09:31:29;3.90;75.90
30304;DHT22;17112;48.636;10.152;2023-02-15T09:33:55;3.90;75.80
30304;DHT22;17112;48.636;10.152;2023-02-15T09:36:24;3.90;75.90
30304;DHT22;17112;48.636;10.152;2023-02-15T09:44:43;4.10;76.00
30304;DHT22;17112;48.636;10.152;2023-02-15T09:50:26;4.30;75.80
30304;DHT22;17112;48.636;10.152;2023-02-15T09:59:29;4.40;75.50
30304;DHT22;17112;48.636;10.152;2023-02-15T10:05:05;4.60;75.10
30304;DHT22;17112;48.636;10.152;2023-02-15T10:07:57;4.60;75.20
30304;DHT22;17112;48.636;10.152;2023-02-15T10:13:44;4.70;75.10
30304;DHT22;17112;48.636;10.152;2023-02-15T10:16:24;4.80;75.20
30304;DHT22;17112;48.636;10.152;2023-02-15T10:24:24;4.90;74.70
30304;DHT22;17112;48.636;10.152;2023-02-15T10:26:55;5.00;74.70
30304;DHT22;17112;48.636;10.152;2023-02-15T10:29:37;5.00;74.70
30304;DHT22;17112;48.636;10.152;2023-02-15T10:32:24;5.00;74.50
30304;DHT22;17112;48.636;10.152;2023-02-15T10:37:37;5.10;74.00
30304;DHT22;17112;48.636;10.152;2023-02-15T10:40:26;5.10;73.60
30304;DHT22;17112;48.636;10.152;2023-02-15T11:06:48;5.10;74.20
30304;DHT22;17112;48.636;10.152;2023-02-15T11:09:18;5.20;74.40
30304;DHT22;17112;48.636;10.152;2023-02-15T11:11:49;5.30;74.40
30304;DHT22;17112;48.636;10.152;2023-02-15T11:14:30;5.30;74.10
30304;DHT22;17112;48.636;10.152;2023-02-15T11:17:06;5.30;74.00
30304;DHT22;17112;48.636;10.152;2023-02-15T11:20:31;5.30;74.10
30304;DHT22;17112;48.636;10.152;2023-02-15T11:22:38;5.40;73.80
30304;DHT22;17112;48.636;10.152;2023-02-15T11:25:16;5.40;74.00
30304;DHT22;17112;48.636;10.152;2023-02-15T11:27:43;5.50;73.80
30304;DHT22;17112;48.636;10.152;2023-02-15T11:30:15;5.50;74.00
30304;DHT22;17112;48.636;10.152;2023-02-15T11:32:54;5.60;74.20
30304;DHT22;17112;48.636;10.152;2023-02-15T11:35:44;5.60;74.20
30304;DHT22;17112;48.636;10.152;2023-02-15T11:38:31;5.70;74.10
30304;DHT22;17112;48.636;10.152;2023-02-15T11:41:19;5.80;73.90
30304;DHT22;17112;48.636;10.152;2023-02-15T11:44:06;5.90;74.00
30304;DHT22;17112;48.636;10.152;2023-02-15T11:46:36;5.90;73.70
30304;DHT22;17112;48.636;10.152;2023-02-15T11:49:02;6.00;73.60
30304;DHT22;17112;48.636;10.152;2023-02-15T11:51:29;6.10;73.50
30304;DHT22;17112;48.636;10.152;2023-02-15T11:53:56;6.10;73.30
30304;DHT22;17112;48.636;10.152;2023-02-15T11:56:24;6.10;72.90
30304;DHT22;17112;48.636;10.152;2023-02-15T12:01:36;6.00;72.30
30304;DHT22;17112;48.636;10.152;2023-02-15T12:04:23;6.00;72.60
30304;DHT22;17112;48.636;10.152;2023-02-15T12:07:01;6.00;72.60
30304;DHT22;17112;48.636;10.152;2023-02-15T12:12:32;6.10;73.40
30304;DHT22;17112;48.636;10.152;2023-02-15T12:15:00;6.20;73.20
30304;DHT22;17112;48.636;10.152;2023-02-15T12:17:28;6.20;73.10
30304;DHT22;17112;48.636;10.152;2023-02-15T12:22:36;6.30;72.90
30304;DHT22;17112;48.636;10.152;2023-02-15T12:25:26;6.40;72.80
30304;DHT22;17112;48.636;10.152;2023-02-15T12:27:50;6.50;72.60
30304;DHT22;17112;48.636;10.152;2023-02-15T12:30:36;6.50;72.70
30304;DHT22;17112;48.636;10.152;2023-02-15T12:36:15;6.60;72.40
30304;DHT22;17112;48.636;10.152;2023-02-15T12:38:42;6.70;72.40
30304;DHT22;17112;48.636;10.152;2023-02-15T12:41:25;6.70;72.60
30304;DHT22;17112;48.636;10.152;2023-02-15T12:44:06;6.80;72.10
30304;DHT22;17112;48.636;10.152;2023-02-15T12:46:32;6.80;72.20
30304;DHT22;17112;48.636;10.152;2023-02-15T12:49:18;6.90;72.50
30304;DHT22;17112;48.636;10.152;2023-02-15T12:56:50;7.00;72.10
30304;DHT22;17112;48.636;10.152;2023-02-15T12:59:16;7.10;72.00
30304;DHT22;17112;48.636;10.152;2023-02-15T13:01:42;7.20;72.10
30304;DHT22;17112;48.636;10.152;2023-02-15T13:04:28;7.20;72.10
30304;DHT22;17112;48.636;10.152;2023-02-15T13:07:02;7.30;71.60
30304;DHT22;17112;48.636;10.152;2023-02-15T13:12:08;7.40;71.80
30304;DHT22;17112;48.636;10.152;2023-02-15T13:14:35;7.40;71.60
30304;DHT22;17112;48.636;10.152;2023-02-15T13:17:03;7.50;71.60
30304;DHT22;17112;48.636;10.152;2023-02-15T13:19:43;7.60;71.60
30304;DHT22;17112;48.636;10.152;2023-02-15T13:22:21;7.60;71.60
30304;DHT22;17112;48.636;10.152;2023-02-15T13:24:56;7.60;71.30
30304;DHT22;17112;48.636;10.152;2023-02-15T13:27:27;7.70;71.30
30304;DHT22;17112;48.636;10.152;2023-02-15T13:29:58;7.70;71.50
30304;DHT22;17112;48.636;10.152;2023-02-15T13:32:27;7.70;71.60
30304;DHT22;17112;48.636;10.152;2023-02-15T13:34:59;7.80;71.50
30304;DHT22;17112;48.636;10.152;2023-02-15T13:38:01;7.90;71.30
30304;DHT22;17112;48.636;10.152;2023-02-15T13:40:55;8.00;70.40
30304;DHT22;17112;48.636;10.152;2023-02-15T13:46:16;8.10;70.60
30304;DHT22;17112;48.636;10.152;2023-02-15T13:51:54;8.20;70.30
30304;DHT22;17112;48.636;10.152;2023-02-15T14:05:23;8.40;69.50
30304;DHT22;17112;48.636;10.152;2023-02-15T14:08:19;8.40;69.90
30304;DHT22;17112;48.636;10.152;2023-02-15T14:11:06;8.40;69.40
30304;DHT22;17112;48.636;10.152;2023-02-15T14:22:30;8.50;69.10
30304;DHT22;17112;48.636;10.152;2023-02-15T14:30:30;8.60;70.60
30304;DHT22;17112;48.636;10.152;2023-02-15T14:35:30;9.00;70.10
30304;DHT22;17112;48.636;10.152;2023-02-15T14:46:03;9.80;68.30
30304;DHT22;17112;48.636;10.152;2023-02-15T14:49:41;10.00;68.20
30304;DHT22;17112;48.636;10.152;2023-02-15T14:59:53;10.30;67.10
30304;DHT22;17112;48.636;10.152;2023-02-15T15:05:01;10.50;66.70
30304;DHT22;17112;48.636;10.152;2023-02-15T15:07:37;10.60;66.30
30304;DHT22;17112;48.636;10.152;2023-02-15T15:12:49;10.60;64.90
30304;DHT22;17112;48.636;10.152;2023-02-15T15:28:07;10.40;64.60
30304;DHT22;17112;48.636;10.152;2023-02-15T15:33:01;10.20;64.50
30304;DHT22;17112;48.636;10.152;2023-02-15T15:44:30;9.50;65.00
30304;DHT22;17112;48.636;10.152;2023-02-15T15:47:23;9.20;64.80
30304;DHT22;17112;48.636;10.152;2023-02-15T15:49:56;9.00;65.70
30304;DHT22;17112;48.636;10.152;2023-02-15T15:52:22;8.80;65.90
30304;DHT22;17112;48.636;10.152;2023-02-15T15:54:55;8.60;66.30
30304;DHT22;17112;48.636;10.152;2023-02-15T15:57:25;8.50;66.50
30304;DHT22;17112;48.636;10.152;2023-02-15T15:59:53;8.40;66.90
30304;DHT22;17112;48.636;10.152;2023-02-15T16:02:20;8.30;67.20
30304;DHT22;17112;48.636;10.152;2023-02-15T16:04:46;8.20;67.40
30304;DHT22;17112;48.636;10.152;2023-02-15T16:09:53;8.00;67.50
30304;DHT22;17112;48.636;10.152;2023-02-15T16:12:19;7.90;67.60
30304;DHT22;17112;48.636;10.152;2023-02-15T16:14:46;7.80;67.80
30304;DHT22;17112;48.636;10.152;2023-02-15T16:17:28;7.70;68.00
30304;DHT22;17112;48.636;10.152;2023-02-15T16:20:06;7.70;68.30
30304;DHT22;17112;48.636;10.152;2023-02-15T16:22:33;7.60;68.40
30304;DHT22;17112;48.636;10.152;2023-02-15T16:25:11;7.50;68.50
30304;DHT22;17112;48.636;10.152;2023-02-15T16:27:43;7.50;68.60
30304;DHT22;17112;48.636;10.152;2023-02-15T16:30:36;7.40;68.60
30304;DHT22;17112;48.636;10.152;2023-02-15T16:33:08;7.40;68.60
30304;DHT22;17112;48.636;10.152;2023-02-15T16:35:37;7.30;68.70
30304;DHT22;17112;48.636;10.152;2023-02-15T16:38:03;7.20;68.80
30304;DHT22;17112;48.636;10.152;2023-02-15T16:40:43;7.20;68.80
30304;DHT22;17112;48.636;10.152;2023-02-15T16:43:19;7.10;68.90
30304;DHT22;17112;48.636;10.152;2023-02-15T16:45:46;7.00;69.00
30304;DHT22;17112;48.636;10.152;2023-02-15T16:48:17;7.00;68.90
30304;DHT22;17112;48.636;10.152;2023-02-15T16:50:48;6.80;68.80
30304;DHT22;17112;48.636;10.152;2023-02-15T16:53:23;6.80;69.30
30304;DHT22;17112;48.636;10.152;2023-02-15T16:55:52;6.70;69.60
30304;DHT22;17112;48.636;10.152;2023-02-15T16:58:30;6.80;70.00
30304;DHT22;17112;48.636;10.152;2023-02-15T17:01:00;6.50;70.20
30304;DHT22;17112;48.636;10.152;2023-02-15T17:03:28;6.40;70.40
30304;DHT22;17112;48.636;10.152;2023-02-15T17:05:59;6.40;70.50
30304;DHT22;17112;48.636;10.152;2023-02-15T17:08:31;6.30;70.80
30304;DHT22;17112;48.636;10.152;2023-02-15T17:11:16;6.30;71.00
30304;DHT22;17112;48.636;10.152;2023-02-15T17:16:35;6.20;71.40
30304;DHT22;17112;48.636;10.152;2023-02-15T17:19:09;6.20;71.40
30304;DHT22;17112;48.636;10.152;2023-02-15T17:21:43;6.10;71.60
30304;DHT22;17112;48.636;10.152;2023-02-15T17:24:17;6.10;71.70
30304;DHT22;17112;48.636;10.152;2023-02-15T17:26:50;6.10;72.00
30304;DHT22;17112;48.636;10.152;2023-02-15T17:31:48;6.00;72.10
30304;DHT22;17112;48.636;10.152;2023-02-15T17:37:11;5.90;72.30
30304;DHT22;17112;48.636;10.152;2023-02-15T17:39:37;5.90;72.20
30304;DHT22;17112;48.636;10.152;2023-02-15T17:42:03;5.90;72.00
30304;DHT22;17112;48.636;10.152;2023-02-15T17:44:28;5.80;72.00
30304;DHT22;17112;48.636;10.152;2023-02-15T17:46:54;5.80;72.20
30304;DHT22;17112;48.636;10.152;2023-02-15T17:49:24;5.70;71.80
30304;DHT22;17112;48.636;10.152;2023-02-15T17:51:53;5.70;72.20
30304;DHT22;17112;48.636;10.152;2023-02-15T17:54:19;5.60;72.30
30304;DHT22;17112;48.636;10.152;2023-02-15T17:57:10;5.60;72.60
30304;DHT22;17112;48.636;10.152;2023-02-15T17:59:37;5.60;72.70
30304;DHT22;17112;48.636;10.152;2023-02-15T18:02:21;5.60;72.90
30304;DHT22;17112;48.636;10.152;2023-02-15T18:05:14;5.60;73.00
30304;DHT22;17112;48.636;10.152;2023-02-15T18:07:58;5.60;73.10
30304;DHT22;17112;48.636;10.152;2023-02-15T18:10:43;5.50;72.40
30304;DHT22;17112;48.636;10.152;2023-02-15T18:13:27;5.50;72.80
30304;DHT22;17112;48.636;10.152;2023-02-15T18:15:53;5.40;72.20
30304;DHT22;17112;48.636;10.152;2023-02-15T18:18:20;5.40;72.60
30304;DHT22;17112;48.636;10.152;2023-02-15T18:20:46;5.30;72.60
30304;DHT22;17112;48.636;10.152;2023-02-15T18:23:13;5.30;72.60
30304;DHT22;17112;48.636;10.152;2023-02-15T18:25:39;5.20;72.40
30304;DHT22;17112;48.636;10.152;2023-02-15T18:28:04;5.20;72.60
30304;DHT22;17112;48.636;10.152;2023-02-15T18:30:31;5.10;72.90
30304;DHT22;17112;48.636;10.152;2023-02-15T18:32:58;5.10;74.00
30304;DHT22;17112;48.636;10.152;2023-02-15T18:35:29;5.00;73.60
30304;DHT22;17112;48.636;10.152;2023-02-15T18:37:55;5.00;73.80
30304;DHT22;17112;48.636;10.152;2023-02-15T18:40:23;5.00;73.80
30304;DHT22;17112;48.636;10.152;2023-02-15T18:42:50;5.00;73.80
30304;DHT22;17112;48.636;10.152;2023-02-15T18:45:22;5.00;73.80
30304;DHT22;17112;48.636;10.152;2023-02-15T18:47:50;5.00;73.80
30304;DHT22;17112;48.636;10.152;2023-02-15T18:50:18;5.00;73.70
30304;DHT22;17112;48.636;10.152;2023-02-15T18:52:46;5.00;73.70
30304;DHT22;17112;48.636;10.152;2023-02-15T18:55:19;5.00;73.60
30304;DHT22;17112;48.636;10.152;2023-02-15T18:57:46;5.00;73.70
30304;DHT22;17112;48.636;10.152;2023-02-15T19:00:31;5.00;73.60
30304;DHT22;17112;48.636;10.152;2023-02-15T19:02:59;5.00;73.80
30304;DHT22;17112;48.636;10.152;2023-02-15T19:05:25;5.00;73.60
30304;DHT22;17112;48.636;10.152;2023-02-15T19:07:55;4.90;73.50